createdAt,value
2019-02-08T00:00:40.865Z,87.10
2019-02-08T00:03:09.726Z,87.18
2019-02-08T00:05:38.347Z,87.72
2019-02-08T00:08:07.176Z,87.95
2019-02-08T00:10:36.115Z,88.53
2019-02-08T00:13:04.946Z,87.85
2019-02-08T00:15:33.587Z,88.07
2019-02-08T00:18:02.249Z,87.29
2019-02-08T00:20:30.870Z,86.94
2019-02-08T00:22:59.617Z,87.61
2019-02-08T00:25:28.402Z,87.85
2019-02-08T00:27:57.391Z,88.22
2019-02-08T00:30:30.036Z,88.07
2019-02-08T00:32:58.961Z,88.29
2019-02-08T00:35:27.597Z,88.25
2019-02-08T00:37:56.229Z,88.34
2019-02-08T00:40:25.749Z,88.51
2019-02-08T00:42:54.951Z,88.86
2019-02-08T00:45:24.287Z,88.90
2019-02-08T00:47:53.308Z,89.31
2019-02-08T00:50:31.987Z,88.76
2019-02-08T00:53:00.654Z,89.31
2019-02-08T00:55:29.378Z,88.92
2019-02-08T00:57:58.381Z,88.91
2019-02-08T01:00:27.153Z,88.69
2019-02-08T01:02:56.292Z,88.73
2019-02-08T01:05:26.975Z,87.90
2019-02-08T01:07:56.639Z,87.84
2019-02-08T01:10:30.698Z,87.97
2019-02-08T01:13:00.411Z,87.99
2019-02-08T01:15:33.462Z,88.65
2019-02-08T01:18:02.198Z,89.00
2019-02-08T01:20:30.914Z,88.66
2019-02-08T01:22:59.794Z,88.84
2019-02-08T01:25:30.702Z,89.12
2019-02-08T01:27:59.537Z,89.22
2019-02-08T01:30:34.992Z,88.63
2019-02-08T01:33:03.905Z,88.84
2019-02-08T01:35:32.753Z,89.32
2019-02-08T01:38:01.722Z,89.29
2019-02-08T01:40:35.546Z,89.40
2019-02-08T01:43:04.960Z,89.24
2019-02-08T01:45:34.027Z,89.40
2019-02-08T01:48:03.046Z,90.81
2019-02-08T01:50:31.967Z,90.65
2019-02-08T01:53:00.849Z,90.17
2019-02-08T01:55:29.683Z,89.81
2019-02-08T01:57:58.287Z,89.69
2019-02-08T02:00:29.759Z,89.83
2019-02-08T02:02:58.379Z,90.18
2019-02-08T02:05:27.141Z,89.55
2019-02-08T02:07:55.791Z,89.52
2019-02-08T02:10:32.882Z,89.00
2019-02-08T02:13:01.757Z,89.33
2019-02-08T02:15:30.517Z,88.82
2019-02-08T02:17:59.446Z,89.10
2019-02-08T02:20:32.877Z,88.72
2019-02-08T02:23:01.729Z,88.73
2019-02-08T02:25:31.013Z,88.14
2019-02-08T02:27:59.666Z,88.50
2019-02-08T02:30:33.885Z,88.31
2019-02-08T02:33:02.571Z,88.49
2019-02-08T02:35:31.543Z,89.05
2019-02-08T02:38:00.392Z,88.42
2019-02-08T02:40:29.088Z,88.32
2019-02-08T02:42:57.991Z,88.20
2019-02-08T02:45:29.339Z,88.23
2019-02-08T02:47:58.266Z,87.86
2019-02-08T02:50:27.127Z,87.37
2019-02-08T02:52:55.689Z,87.88
2019-02-08T02:55:26.305Z,88.12
2019-02-08T02:57:54.969Z,88.05
2019-02-08T03:00:31.864Z,88.07
2019-02-08T03:03:00.623Z,87.82
2019-02-08T03:05:29.644Z,87.80
2019-02-08T03:07:58.266Z,87.90
2019-02-08T03:10:26.915Z,87.63
2019-02-08T03:12:55.532Z,88.25
2019-02-08T03:15:25.453Z,88.31
2019-02-08T03:17:54.426Z,88.04
2019-02-08T03:20:24.348Z,87.19
2019-02-08T03:22:53.367Z,87.10
2019-02-08T03:25:29.798Z,87.26
2019-02-08T03:27:58.717Z,87.36
2019-02-08T03:30:34.629Z,87.44
2019-02-08T03:33:03.250Z,87.88
2019-02-08T03:35:32.172Z,88.01
2019-02-08T03:38:01.025Z,87.80
2019-02-08T03:40:30.848Z,87.48
2019-02-08T03:43:00.166Z,87.84
2019-02-08T03:45:30.480Z,88.41
2019-02-08T03:47:59.215Z,88.21
2019-02-08T03:50:27.929Z,87.16
2019-02-08T03:52:56.600Z,86.83
2019-02-08T03:55:25.752Z,86.48
2019-02-08T03:57:54.376Z,86.45
2019-02-08T04:00:29.891Z,86.86
2019-02-08T04:02:58.515Z,86.75
2019-02-08T04:05:27.538Z,86.76
2019-02-08T04:07:56.305Z,86.31
2019-02-08T04:10:25.009Z,86.69
2019-02-08T04:12:53.719Z,86.40
2019-02-08T04:18:00.818Z,87.50
2019-02-08T04:20:29.447Z,87.26
2019-02-08T04:22:58.065Z,87.31
2019-02-08T04:25:27.093Z,87.46
2019-02-08T04:27:56.122Z,87.52
2019-02-08T04:30:31.958Z,87.38
2019-02-08T04:33:01.784Z,87.03
2019-02-08T04:35:30.531Z,87.01
2019-02-08T04:37:59.247Z,86.95
2019-02-08T04:40:28.679Z,86.77
2019-02-08T04:42:57.390Z,86.57
2019-02-08T04:45:26.272Z,86.47
2019-02-08T04:47:54.905Z,85.98
2019-02-08T04:50:30.058Z,86.06
2019-02-08T04:53:01.554Z,87.89
2019-02-08T04:55:30.181Z,87.76
2019-02-08T04:57:58.724Z,86.66
2019-02-08T05:00:29.835Z,86.26
2019-02-08T05:02:58.556Z,85.87
2019-02-08T05:05:27.597Z,86.41
2019-02-08T05:07:56.233Z,86.35
2019-02-08T05:10:30.719Z,86.30
2019-02-08T05:12:59.339Z,86.40
2019-02-08T05:15:28.581Z,86.09
2019-02-08T05:17:57.216Z,85.05
2019-02-08T05:20:31.200Z,85.60
2019-02-08T05:23:00.128Z,86.24
2019-02-08T05:25:28.740Z,86.22
2019-02-08T05:27:57.344Z,86.55
2019-02-08T05:30:31.475Z,87.60
2019-02-08T05:33:00.214Z,87.72
2019-02-08T05:35:29.331Z,87.96
2019-02-08T05:37:58.146Z,88.73
2019-02-08T05:40:26.968Z,88.42
2019-02-08T05:42:55.720Z,88.05
2019-02-08T05:45:25.597Z,88.57
2019-02-08T05:47:54.237Z,88.59
2019-02-08T05:50:24.853Z,89.00
2019-02-08T05:52:53.737Z,89.92
2019-02-08T05:55:30.571Z,90.69
2019-02-08T05:57:59.679Z,88.95
2019-02-08T06:00:32.603Z,87.92
2019-02-08T06:03:02.123Z,88.11
2019-02-08T06:05:30.989Z,87.88
2019-02-08T06:07:59.632Z,88.34
2019-02-08T06:10:28.264Z,88.05
2019-02-08T06:12:56.933Z,88.61
2019-02-08T06:15:26.448Z,88.01
2019-02-08T06:17:55.278Z,88.16
2019-02-08T06:20:25.651Z,87.32
2019-02-08T06:22:54.557Z,86.82
2019-02-08T06:25:24.096Z,87.19
2019-02-08T06:27:53.166Z,87.26
2019-02-08T06:30:29.175Z,87.33
2019-02-08T06:32:58.265Z,87.63
2019-02-08T06:35:28.038Z,87.28
2019-02-08T06:37:56.672Z,86.61
2019-02-08T06:40:33.972Z,86.60
2019-02-08T06:43:02.593Z,85.58
2019-02-08T06:45:31.528Z,85.11
2019-02-08T06:48:00.415Z,85.85
2019-02-08T06:50:29.334Z,83.88
2019-02-08T06:52:57.967Z,84.16
2019-02-08T06:55:26.675Z,83.80
2019-02-08T06:57:59.791Z,83.53
2019-02-08T07:00:36.155Z,83.81
2019-02-08T07:03:07.159Z,84.71
2019-02-08T07:05:46.316Z,83.64
2019-02-08T07:08:32.673Z,82.83
2019-02-08T07:11:18.015Z,83.42
2019-02-08T07:13:54.075Z,84.39
2019-02-08T07:16:24.551Z,83.71
2019-02-08T07:18:54.807Z,82.66
2019-02-08T07:21:31.121Z,82.63
2019-02-08T07:24:01.383Z,81.94
2019-02-08T07:26:47.002Z,81.97
2019-02-08T07:29:17.264Z,81.86
2019-02-08T07:31:59.645Z,81.22
2019-02-08T07:34:29.846Z,81.31
2019-02-08T07:37:03.053Z,81.67
2019-02-08T07:39:38.120Z,81.26
2019-02-08T07:42:14.254Z,81.33
2019-02-08T07:44:58.598Z,80.94
2019-02-08T07:47:28.960Z,82.44
2019-02-08T07:49:59.337Z,82.69
2019-02-08T07:52:29.837Z,82.89
2019-02-08T07:55:03.093Z,81.93
2019-02-08T07:57:36.643Z,81.40
2019-02-08T08:00:15.898Z,81.63
2019-02-08T08:03:02.640Z,80.31
2019-02-08T08:05:41.945Z,79.24
2019-02-08T08:08:15.471Z,78.63
2019-02-08T08:10:48.448Z,79.65
2019-02-08T08:13:18.725Z,79.23
2019-02-08T08:15:55.210Z,79.31
2019-02-08T08:18:25.774Z,78.97
2019-02-08T08:21:02.442Z,79.39
2019-02-08T08:23:42.012Z,79.86
2019-02-08T08:26:13.006Z,79.07
2019-02-08T08:28:43.373Z,78.63
2019-02-08T08:31:15.949Z,78.65
2019-02-08T08:33:50.372Z,77.20
2019-02-08T08:36:37.032Z,77.08
2019-02-08T08:39:25.023Z,77.38
2019-02-08T08:42:17.980Z,77.82
2019-02-08T08:45:04.564Z,78.68
2019-02-08T08:47:42.014Z,79.04
2019-02-08T08:50:30.045Z,78.70
2019-02-08T08:53:07.084Z,78.27
2019-02-08T08:55:54.902Z,78.85
2019-02-08T08:58:41.277Z,78.38
2019-02-08T09:01:31.502Z,78.35
2019-02-08T09:04:03.055Z,78.22
2019-02-08T09:07:16.102Z,79.75
2019-02-08T09:09:51.746Z,79.08
2019-02-08T09:12:32.794Z,78.13
2019-02-08T09:15:16.107Z,78.65
2019-02-08T09:18:05.490Z,79.59
2019-02-08T09:20:42.931Z,79.75
2019-02-08T09:23:35.499Z,80.73
2019-02-08T09:26:22.256Z,80.79
2019-02-08T09:29:25.446Z,80.35
2019-02-08T09:32:19.814Z,80.57
2019-02-08T09:35:26.243Z,80.52
2019-02-08T09:38:19.001Z,80.01
2019-02-08T09:41:26.036Z,77.82
2019-02-08T09:44:17.484Z,78.59
2019-02-08T09:47:14.806Z,79.16
2019-02-08T09:49:55.412Z,79.83
2019-02-08T09:52:41.988Z,78.90
2019-02-08T09:55:34.583Z,77.76
2019-02-08T09:58:22.608Z,77.45
2019-02-08T10:01:17.051Z,78.06
2019-02-08T10:04:00.351Z,78.10
2019-02-08T10:06:54.602Z,77.77
2019-02-08T10:09:53.424Z,77.53
2019-02-08T10:12:48.767Z,77.79
2019-02-08T10:15:35.095Z,77.30
2019-02-08T10:18:33.833Z,77.37
2019-02-08T10:21:11.244Z,77.07
2019-02-08T10:23:59.099Z,78.09
2019-02-08T10:26:36.171Z,79.05
2019-02-08T10:29:39.417Z,78.73
2019-02-08T10:32:45.875Z,78.85
2019-02-08T10:35:36.566Z,78.50
2019-02-08T10:38:36.833Z,77.08
2019-02-08T10:41:17.136Z,77.57
2019-02-08T10:44:13.253Z,77.72
2019-02-08T10:47:01.485Z,77.71
2019-02-08T10:49:44.844Z,78.24
2019-02-08T10:52:25.279Z,78.90
2019-02-08T10:55:16.325Z,78.16
2019-02-08T10:58:12.106Z,78.00
2019-02-08T11:01:03.595Z,78.06
2019-02-08T11:03:51.756Z,78.12
2019-02-08T11:06:38.692Z,78.18
2019-02-08T11:09:30.850Z,77.74
2019-02-08T11:12:11.030Z,76.86
2019-02-08T11:15:10.111Z,77.09
2019-02-08T11:18:13.103Z,78.46
2019-02-08T11:20:41.805Z,77.97
2019-02-08T11:23:10.432Z,78.36
2019-02-08T11:25:39.065Z,78.29
2019-02-08T11:28:07.674Z,77.67
2019-02-08T11:30:36.305Z,77.39
2019-02-08T11:33:05.750Z,76.58
2019-02-08T11:35:34.321Z,76.16
2019-02-08T11:38:02.949Z,76.12
2019-02-08T11:40:31.587Z,77.05
2019-02-08T11:43:00.426Z,76.77
2019-02-08T11:45:29.158Z,76.38
2019-02-08T11:47:57.792Z,75.53
2019-02-08T11:50:27.717Z,74.72
2019-02-08T11:52:56.337Z,74.80
2019-02-08T11:55:24.973Z,75.17
2019-02-08T11:57:53.567Z,74.85
2019-02-08T12:00:38.227Z,75.52
2019-02-08T12:03:09.872Z,76.60
2019-02-08T12:05:38.429Z,76.47
2019-02-08T12:08:08.237Z,75.86
2019-02-08T12:10:36.906Z,76.02
2019-02-08T12:13:05.631Z,76.64
2019-02-08T12:15:34.363Z,76.65
2019-02-08T12:18:03.019Z,77.71
2019-02-08T12:20:31.689Z,77.52
2019-02-08T12:23:00.288Z,77.26
2019-02-08T12:25:29.154Z,76.14
2019-02-08T12:27:57.849Z,76.82
2019-02-08T12:30:32.007Z,77.08
2019-02-08T12:33:00.871Z,76.19
2019-02-08T12:35:29.501Z,75.75
2019-02-08T12:37:58.121Z,75.33
2019-02-08T12:40:26.737Z,76.23
2019-02-08T12:42:55.577Z,75.53
2019-02-08T12:45:24.701Z,75.57
2019-02-08T12:47:53.369Z,75.41
2019-02-08T12:50:22.210Z,75.99
2019-02-08T12:52:50.835Z,75.49
2019-02-08T12:55:20.915Z,75.20
2019-02-08T12:57:49.542Z,75.69
2019-02-08T13:00:25.573Z,76.68
2019-02-08T13:02:54.208Z,75.89
2019-02-08T13:05:23.022Z,75.90
2019-02-08T13:07:51.698Z,76.07
2019-02-08T13:10:30.727Z,75.39
2019-02-08T13:12:59.696Z,75.43
2019-02-08T13:15:28.351Z,75.71
2019-02-08T13:17:56.912Z,76.03
2019-02-08T13:20:25.770Z,76.76
2019-02-08T13:22:54.398Z,76.74
2019-02-08T13:25:23.125Z,77.25
2019-02-08T13:27:51.786Z,77.09
2019-02-08T13:30:35.162Z,76.62
2019-02-08T13:33:04.022Z,76.55
2019-02-08T13:35:32.590Z,77.19
2019-02-08T13:38:01.222Z,77.19
2019-02-08T13:40:30.995Z,77.04
2019-02-08T13:42:59.634Z,75.97
2019-02-08T13:45:28.563Z,76.29
2019-02-08T13:47:57.656Z,76.59
2019-02-08T13:50:36.589Z,76.06
2019-02-08T13:53:05.342Z,76.20
2019-02-08T13:55:33.960Z,76.19
2019-02-08T13:58:02.684Z,77.13
2019-02-08T14:00:36.998Z,77.38
2019-02-08T14:03:06.844Z,77.57
2019-02-08T14:05:37.099Z,76.27
2019-02-08T14:08:07.070Z,75.75
2019-02-08T14:10:35.725Z,75.36
2019-02-08T14:13:05.060Z,75.05
2019-02-08T14:15:34.727Z,75.51
2019-02-08T14:18:03.346Z,75.72
2019-02-08T14:20:32.071Z,75.91
2019-02-08T14:23:00.736Z,76.00
2019-02-08T14:25:29.293Z,75.24
2019-02-08T14:27:58.018Z,74.56
2019-02-08T14:30:38.305Z,74.89
2019-02-08T14:33:07.128Z,75.63
2019-02-08T14:35:35.987Z,76.07
2019-02-08T14:38:07.804Z,76.04
2019-02-08T14:40:36.428Z,76.13
2019-02-08T14:43:05.160Z,76.22
2019-02-08T14:45:33.827Z,76.25
2019-02-08T14:48:02.568Z,76.82
2019-02-08T14:50:31.492Z,76.83
2019-02-08T14:53:00.466Z,77.46
2019-02-08T14:55:29.390Z,77.43
2019-02-08T14:58:00.871Z,76.92
2019-02-08T15:00:29.556Z,77.26
2019-02-08T15:02:58.194Z,77.53
2019-02-08T15:05:26.894Z,77.67
2019-02-08T15:07:55.563Z,77.40
2019-02-08T15:10:32.588Z,78.46
2019-02-08T15:13:01.267Z,77.13
2019-02-08T15:15:29.874Z,76.24
2019-02-08T15:17:58.510Z,76.79
2019-02-08T15:20:29.719Z,76.35
2019-02-08T15:22:58.355Z,75.57
2019-02-08T15:25:26.978Z,75.73
2019-02-08T15:27:55.631Z,76.83
2019-02-08T15:30:29.960Z,77.03
2019-02-08T15:32:58.597Z,76.82
2019-02-08T15:35:29.651Z,76.60
2019-02-08T15:37:58.375Z,77.03
2019-02-08T15:40:32.576Z,77.02
2019-02-08T15:43:01.240Z,76.99
2019-02-08T15:45:29.855Z,77.09
2019-02-08T15:47:58.491Z,77.35
2019-02-08T15:50:27.143Z,77.34
2019-02-08T15:52:55.768Z,77.83
2019-02-08T15:55:27.252Z,77.71
2019-02-08T15:57:55.929Z,78.13
2019-02-08T16:00:30.083Z,77.24
2019-02-08T16:02:59.468Z,77.75
2019-02-08T16:05:30.211Z,77.64
2019-02-08T16:07:59.168Z,77.77
2019-02-08T16:10:27.892Z,77.91
2019-02-08T16:12:56.597Z,77.84
2019-02-08T16:15:29.951Z,78.17
2019-02-08T16:17:58.773Z,77.65
2019-02-08T16:20:29.254Z,78.87
2019-02-08T16:22:59.743Z,80.07
2019-02-08T16:25:32.675Z,80.28
2019-02-08T16:28:01.386Z,80.56
2019-02-08T16:30:32.554Z,80.80
2019-02-08T16:33:01.379Z,81.78
2019-02-08T16:35:30.641Z,81.63
2019-02-08T16:37:59.373Z,81.47
2019-02-08T16:40:29.587Z,81.37
2019-02-08T16:42:58.861Z,82.11
2019-02-08T16:45:33.098Z,82.33
2019-02-08T16:48:02.623Z,81.88
2019-02-08T16:50:33.179Z,81.64
2019-02-08T16:53:01.989Z,82.36
2019-02-08T16:55:30.607Z,82.39
2019-02-08T16:57:59.272Z,81.34
2019-02-08T17:00:30.430Z,81.55
2019-02-08T17:03:00.950Z,81.66
2019-02-08T17:05:30.406Z,82.07
2019-02-08T17:07:59.036Z,81.41
2019-02-08T17:10:27.848Z,81.85
2019-02-08T17:12:56.610Z,82.67
2019-02-08T17:15:27.711Z,82.14
2019-02-08T17:17:56.661Z,82.03
2019-02-08T17:20:48.874Z,82.37
2019-02-08T17:23:17.497Z,81.65
2019-02-08T17:25:46.329Z,81.65
2019-02-08T17:28:15.217Z,81.07
2019-02-08T17:30:43.774Z,81.07
2019-02-08T17:33:12.407Z,81.33
2019-02-08T17:35:41.273Z,80.97
2019-02-08T17:38:09.904Z,81.13
2019-02-08T17:40:49.293Z,81.32
2019-02-08T17:43:17.933Z,81.43
2019-02-08T17:45:46.492Z,81.18
2019-02-08T17:48:16.480Z,80.60
2019-02-08T17:50:45.231Z,80.65
2019-02-08T17:53:13.867Z,80.99
2019-02-08T17:55:42.528Z,81.03
2019-02-08T17:58:11.558Z,81.40
2019-02-08T18:00:53.197Z,81.56
2019-02-08T18:03:21.811Z,81.39
2019-02-08T18:05:50.512Z,80.74
2019-02-08T18:08:19.320Z,81.47
2019-02-08T18:10:47.987Z,81.11
2019-02-08T18:13:17.758Z,80.99
2019-02-08T18:15:46.628Z,81.16
2019-02-08T18:18:16.893Z,81.16
2019-02-08T18:20:48.397Z,80.57
2019-02-08T18:23:17.058Z,80.59
2019-02-08T18:25:45.692Z,80.69
2019-02-08T18:28:14.316Z,80.49
2019-02-08T18:30:42.990Z,80.92
2019-02-08T18:33:11.537Z,80.80
2019-02-08T18:35:40.161Z,80.93
2019-02-08T18:38:08.925Z,80.32
2019-02-08T18:40:37.540Z,80.41
2019-02-08T18:43:06.248Z,80.89
2019-02-08T18:45:37.371Z,80.16
2019-02-08T18:48:07.301Z,79.56
2019-02-08T18:50:41.040Z,80.42
2019-02-08T18:53:09.718Z,80.41
2019-02-08T18:55:38.343Z,80.54
2019-02-08T18:58:07.169Z,80.30
2019-02-08T19:00:40.069Z,80.88
2019-02-08T19:03:08.763Z,80.39
2019-02-08T19:05:37.421Z,79.90
2019-02-08T19:08:06.475Z,78.20
2019-02-08T19:10:35.070Z,79.01
2019-02-08T19:13:03.898Z,79.60
2019-02-08T19:15:32.561Z,80.07
2019-02-08T19:18:01.256Z,79.72
2019-02-08T19:20:30.247Z,79.44
2019-02-08T19:22:58.920Z,79.97
2019-02-08T19:25:33.050Z,79.77
2019-02-08T19:28:01.679Z,80.61
2019-02-08T19:30:33.009Z,80.15
2019-02-08T19:33:01.635Z,80.04
2019-02-08T19:35:30.434Z,80.48
2019-02-08T19:37:59.479Z,80.16
2019-02-08T19:40:33.356Z,80.47
2019-02-08T19:43:02.027Z,80.26
2019-02-08T19:45:30.678Z,80.15
2019-02-08T19:47:59.315Z,79.77
2019-02-08T19:50:30.678Z,80.22
2019-02-08T19:52:59.522Z,80.11
2019-02-08T19:55:28.557Z,79.76
2019-02-08T19:57:57.235Z,80.11
2019-02-08T20:00:34.331Z,80.42
2019-02-08T20:03:03.423Z,80.82
2019-02-08T20:05:32.052Z,79.81
2019-02-08T20:08:00.809Z,79.86
2019-02-08T20:10:34.420Z,79.95
2019-02-08T20:13:03.047Z,80.21
2019-02-08T20:15:31.786Z,80.10
2019-02-08T20:18:00.426Z,79.53
2019-02-08T20:20:29.156Z,79.72
2019-02-08T20:22:58.148Z,79.77
2019-02-08T20:25:32.208Z,79.76
2019-02-08T20:28:00.843Z,79.59
2019-02-08T20:30:31.405Z,79.77
2019-02-08T20:33:00.592Z,79.21
2019-02-08T20:35:29.618Z,79.27
2019-02-08T20:37:59.183Z,79.37
2019-02-08T20:40:38.564Z,79.55
2019-02-08T20:43:07.497Z,79.91
2019-02-08T20:45:37.600Z,79.95
2019-02-08T20:48:18.283Z,80.11
2019-02-08T20:50:47.115Z,79.91
2019-02-08T20:53:19.009Z,79.94
2019-02-08T20:55:47.666Z,79.72
2019-02-08T20:58:16.485Z,79.82
2019-02-08T21:00:50.596Z,80.12
2019-02-08T21:03:20.446Z,80.62
2019-02-08T21:05:49.489Z,80.55
2019-02-08T21:08:19.085Z,80.66
2019-02-08T21:10:47.970Z,80.31
2019-02-08T21:13:16.863Z,80.03
2019-02-08T21:15:45.497Z,80.40
2019-02-08T21:18:14.477Z,80.70
2019-02-08T21:20:43.438Z,80.79
2019-02-08T21:23:12.139Z,80.55
2019-02-08T21:25:42.114Z,80.65
2019-02-08T21:28:10.777Z,80.58
2019-02-08T21:30:39.411Z,80.90
2019-02-08T21:33:10.256Z,80.69
2019-02-08T21:35:39.003Z,80.41
2019-02-08T21:38:08.621Z,79.98
2019-02-08T21:40:37.535Z,80.16
2019-02-08T21:43:07.185Z,80.52
2019-02-08T21:45:38.470Z,81.14
2019-02-08T21:48:08.632Z,82.58
2019-02-08T21:50:37.360Z,82.91
2019-02-08T21:53:05.985Z,83.48
2019-02-08T21:55:35.417Z,83.34
2019-02-08T21:58:04.475Z,83.12
2019-02-08T22:00:35.602Z,83.30
2019-02-08T22:03:05.170Z,83.79
2019-02-08T22:05:39.374Z,83.32
2019-02-08T22:08:08.116Z,82.43
2019-02-08T22:10:37.116Z,82.49
2019-02-08T22:13:06.307Z,82.83
2019-02-08T22:15:37.302Z,83.09
2019-02-08T22:18:07.104Z,82.94
2019-02-08T22:20:35.723Z,82.93
2019-02-08T22:23:05.122Z,82.44
2019-02-08T22:25:34.158Z,82.35
2019-02-08T22:28:02.777Z,82.90
2019-02-08T22:30:31.408Z,83.22
2019-02-08T22:33:02.496Z,83.69
2019-02-08T22:35:31.236Z,83.87
2019-02-08T22:37:59.971Z,84.26
2019-02-08T22:40:28.633Z,83.90
2019-02-08T22:42:57.338Z,84.18
2019-02-08T22:45:37.621Z,84.10
2019-02-08T22:48:06.867Z,84.03
2019-02-08T22:50:35.572Z,82.61
2019-02-08T22:53:05.429Z,81.26
2019-02-08T22:55:37.589Z,81.24
2019-02-08T22:58:08.191Z,80.79
2019-02-08T23:00:44.418Z,81.10
2019-02-08T23:03:16.795Z,80.80
2019-02-08T23:05:46.248Z,79.80
2019-02-08T23:08:15.409Z,79.14
2019-02-08T23:10:44.045Z,78.94
2019-02-08T23:13:13.167Z,78.62
2019-02-08T23:15:44.803Z,77.88
2019-02-08T23:18:13.431Z,78.05
2019-02-08T23:20:42.082Z,78.27
2019-02-08T23:23:10.916Z,78.35
2019-02-08T23:25:39.535Z,78.49
2019-02-08T23:28:08.338Z,77.92
2019-02-08T23:30:37.341Z,77.45
2019-02-08T23:33:06.370Z,77.95
2019-02-08T23:35:41.848Z,78.39
2019-02-08T23:38:05.730Z,77.97
2019-02-08T23:40:34.215Z,77.49
2019-02-08T23:43:02.804Z,77.72
2019-02-08T23:45:31.427Z,77.47
2019-02-08T23:48:00.038Z,77.63
2019-02-08T23:50:28.624Z,77.55
2019-02-08T23:52:57.110Z,77.60
2019-02-08T23:55:26.639Z,78.05
2019-02-08T23:57:55.777Z,76.92
